Terminal Aerodrome Forecast
Issued by NWS

Home | Current Version | Previous Version | Text Only | Print | Product List | Glossary On
Versions: 1 2 3 4 5 6 7 8 9 10 11 12 13 14 15 16 17
000
FTUS41 KBTV 241720
TAFMPV
TAF
KMPV 241720Z 2418/2518 32010G18KT P6SM FEW050
     FM250000 27005KT P6SM SKC
     FM250700 23004KT 5SM BR FEW007
     FM250900 00000KT 2SM BR BKN003
     FM251200 VRB03KT P6SM FEW025
     FM251500 26005KT P6SM SCT070=

USA.gov is the U.S. government's official web portal to all federal, state and local government web resources and services.